Roanoke, VA (24001)

11:55 PM EDT on September 27, 2016 (GMT -0400)
Hurt Park ES | | Change Station

Elev 1010 ft 37.28 °N, 79.97 °W | Updated 29 seconds ago

Overcast
Overcast
66.3 °F
Feels Like 66.3 °F
N
0.0
Wind Variable Wind from WSW
Gusts 2.0 mph

Today
High -- | Low -- °F
--% Chance of Precip.
Yesterday
High -- | Low -- °F
Precip. -- in
Pressure 29.91 in
Visibility 10.0 miles
Clouds Overcast 800 ft
Dew Point 63 °F
Humidity 88%
Rainfall 0.66 in
Snow Depth Not available.
7:12 AM 7:08 PM
Waning Crescent, 8% visible
METAR KROA 280254Z 00000KT 10SM OVC008 19/18 A2994 RMK AO2 SLP129 T01890178 51007
Pressure 29.91 in
Visibility 10.0 miles
Clouds Overcast 800 ft
Dew Point 63 °F
Humidity 88%
Rainfall 0.66 in
Snow Depth Not available.
7:12 AM 7:08 PM
Waning Crescent, 8% visible
METAR KROA 280254Z 00000KT 10SM OVC008 19/18 A2994 RMK AO2 SLP129 T01890178 51007

10-Day Weather Forecast

Almanac

Astronomy

Sep. 27, 2016 Rise Set
Actual Time
Civil Twilight
Nautical Twilight
Astronomical Twilight
Moon
Length of Visible Light
Length of Day
Tomorrow will be .
, % of the Moon is Illuminated

Today's Extremes

State Highs State Lows

Community

WunderPhotos

Upload Photos

1,942,203 photos uploaded!

WunderBlog® & News

Nearby

Air Quality

  Air Quality AQ Index Pollutant
Not available.

Snow Depth

Station Depth Elevation

Earthquake Activity

City Distance Mag. Time & Date
Minimum magnitude displayed is 2.5.

Coastal Water Temperatures

Place Temperature

Stations

Nearby Weather Stations

Station Location Temp. Windchill Dew Point Humidity Wind Precip. Elev Updated Type
                   

Watches & Warnings

There are currently no watches in effect.